Main page
METAR-TAF:

METAR-TAF

Airports :

Beja Airbase

Beja, Portugal

latitude: 38-04-40N, longitude: 007-55-57W, elevation: 193 m

Current weather observation

The report was made 24 minutes ago, at 22:00 UTC
Wind 8 kt from the Northwest
Temperature 16°C
Humidity 77%
Pressure 1018 hPa
Visibility 10 km or more
no clouds below 1500 m and no cumulonimbus

METAR: LPBJ 052200Z 31008KT CAVOK 16/12 Q1018

Time: 23:24 (22:24 UTC)

Forecast

The report was made 5 hours and 23 minutes ago, at 17:01 UTC
Forecast valid from 05 at 18 UTC to 06 at 18 UTC
Wind 8 kt from the North/Northwest
Visibility 10 km or more
no clouds below 1500 m and no cumulonimbus
Probability 40%
from 06 at 04 UTC to 06 at 08 UTC
Wind 2 kt from variable directions
Visibility: 2000 m
Broken clouds at a height of 400 ft
patches of fog

TAF: LPBJ 051701Z 0518/0618 33008KT CAVOK PROB40 0604/0608 VRB02KT 2000 BCFG BKN004

Weather observations and forecasts of more than 4000 airports (METAR and TAF reports).

The available stations are represented by yellow and red dots on the map.

Hover mouse over dot to see the name of the station.

Then click to see weather observations and forecasts.

To change the map : click on the green buttons with a black cross to zoom in, on the green button with a dash to zoom out, or on the green arrows for adjacent maps.


METAR-TAF: